sensor_id;sensor_type;location;lat;lon;timestamp;P1;durP1;ratioP1;P2;durP2;ratioP2
5718;SDS011;2884;47.734;9.244;2023-07-29T00:01:35;1.40;;;1.40;;
5718;SDS011;2884;47.734;9.244;2023-07-29T00:04:02;2.20;;;1.20;;
5718;SDS011;2884;47.734;9.244;2023-07-29T00:06:28;2.00;;;1.40;;
5718;SDS011;2884;47.734;9.244;2023-07-29T00:08:53;1.33;;;1.00;;
5718;SDS011;2884;47.734;9.244;2023-07-29T00:11:20;1.40;;;1.30;;
5718;SDS011;2884;47.734;9.244;2023-07-29T00:13:46;1.33;;;1.33;;
5718;SDS011;2884;47.734;9.244;2023-07-29T00:16:12;1.60;;;1.60;;
5718;SDS011;2884;47.734;9.244;2023-07-29T00:18:41;1.30;;;1.30;;
5718;SDS011;2884;47.734;9.244;2023-07-29T00:21:07;1.17;;;1.17;;
5718;SDS011;2884;47.734;9.244;2023-07-29T00:23:33;1.20;;;1.20;;
5718;SDS011;2884;47.734;9.244;2023-07-29T00:26:03;1.23;;;1.23;;
5718;SDS011;2884;47.734;9.244;2023-07-29T00:28:29;1.47;;;1.47;;
5718;SDS011;2884;47.734;9.244;2023-07-29T00:30:55;1.33;;;1.33;;
5718;SDS011;2884;47.734;9.244;2023-07-29T00:33:25;1.40;;;1.40;;
5718;SDS011;2884;47.734;9.244;2023-07-29T00:35:51;1.43;;;1.43;;
5718;SDS011;2884;47.734;9.244;2023-07-29T00:38:20;1.53;;;1.53;;
5718;SDS011;2884;47.734;9.244;2023-07-29T00:40:47;1.57;;;1.47;;
5718;SDS011;2884;47.734;9.244;2023-07-29T00:43:16;2.13;;;1.90;;
5718;SDS011;2884;47.734;9.244;2023-07-29T00:45:42;1.50;;;1.40;;
5718;SDS011;2884;47.734;9.244;2023-07-29T00:48:09;1.70;;;1.60;;
5718;SDS011;2884;47.734;9.244;2023-07-29T00:50:36;1.50;;;1.40;;
5718;SDS011;2884;47.734;9.244;2023-07-29T00:53:02;2.97;;;1.53;;
5718;SDS011;2884;47.734;9.244;2023-07-29T00:55:29;2.50;;;1.43;;
5718;SDS011;2884;47.734;9.244;2023-07-29T00:57:55;1.63;;;1.40;;
5718;SDS011;2884;47.734;9.244;2023-07-29T01:00:21;1.03;;;1.03;;
5718;SDS011;2884;47.734;9.244;2023-07-29T01:02:48;1.40;;;1.30;;
5718;SDS011;2884;47.734;9.244;2023-07-29T01:05:14;1.80;;;1.20;;
5718;SDS011;2884;47.734;9.244;2023-07-29T01:07:51;1.20;;;1.20;;
5718;SDS011;2884;47.734;9.244;2023-07-29T01:10:40;1.77;;;1.50;;
5718;SDS011;2884;47.734;9.244;2023-07-29T01:13:27;1.33;;;1.27;;
5718;SDS011;2884;47.734;9.244;2023-07-29T01:16:06;1.57;;;1.57;;
5718;SDS011;2884;47.734;9.244;2023-07-29T01:18:38;1.90;;;1.80;;
5718;SDS011;2884;47.734;9.244;2023-07-29T01:21:07;1.47;;;1.40;;
5718;SDS011;2884;47.734;9.244;2023-07-29T01:23:37;1.40;;;1.30;;
5718;SDS011;2884;47.734;9.244;2023-07-29T01:26:03;3.03;;;1.97;;
5718;SDS011;2884;47.734;9.244;2023-07-29T01:28:29;1.60;;;1.50;;
5718;SDS011;2884;47.734;9.244;2023-07-29T01:33:56;2.07;;;1.87;;
5718;SDS011;2884;47.734;9.244;2023-07-29T01:36:26;1.87;;;1.80;;
5718;SDS011;2884;47.734;9.244;2023-07-29T01:38:54;4.00;;;1.83;;
5718;SDS011;2884;47.734;9.244;2023-07-29T01:41:22;1.63;;;1.63;;
5718;SDS011;2884;47.734;9.244;2023-07-29T01:43:47;1.70;;;1.60;;
5718;SDS011;2884;47.734;9.244;2023-07-29T01:46:14;1.70;;;1.60;;
5718;SDS011;2884;47.734;9.244;2023-07-29T01:48:40;1.60;;;1.60;;
5718;SDS011;2884;47.734;9.244;2023-07-29T01:51:06;3.77;;;1.80;;
5718;SDS011;2884;47.734;9.244;2023-07-29T01:53:32;1.70;;;1.60;;
5718;SDS011;2884;47.734;9.244;2023-07-29T01:55:58;1.60;;;1.50;;
5718;SDS011;2884;47.734;9.244;2023-07-29T01:58:23;1.50;;;1.30;;
5718;SDS011;2884;47.734;9.244;2023-07-29T02:00:49;4.00;;;1.77;;
5718;SDS011;2884;47.734;9.244;2023-07-29T02:03:15;1.10;;;1.10;;
5718;SDS011;2884;47.734;9.244;2023-07-29T02:05:40;1.10;;;1.10;;
5718;SDS011;2884;47.734;9.244;2023-07-29T02:08:09;1.60;;;1.50;;
5718;SDS011;2884;47.734;9.244;2023-07-29T02:10:35;1.47;;;1.37;;
5718;SDS011;2884;47.734;9.244;2023-07-29T02:13:00;3.17;;;1.20;;
5718;SDS011;2884;47.734;9.244;2023-07-29T02:15:26;1.43;;;1.00;;
5718;SDS011;2884;47.734;9.244;2023-07-29T02:17:52;1.10;;;1.10;;
5718;SDS011;2884;47.734;9.244;2023-07-29T02:20:18;2.10;;;1.23;;
5718;SDS011;2884;47.734;9.244;2023-07-29T02:22:44;3.27;;;1.03;;
5718;SDS011;2884;47.734;9.244;2023-07-29T02:25:09;2.07;;;1.40;;
5718;SDS011;2884;47.734;9.244;2023-07-29T02:27:35;2.67;;;1.43;;
5718;SDS011;2884;47.734;9.244;2023-07-29T02:30:01;1.40;;;1.30;;
5718;SDS011;2884;47.734;9.244;2023-07-29T02:32:27;1.70;;;1.70;;
5718;SDS011;2884;47.734;9.244;2023-07-29T02:34:52;1.83;;;1.70;;
5718;SDS011;2884;47.734;9.244;2023-07-29T02:37:18;1.60;;;1.50;;
5718;SDS011;2884;47.734;9.244;2023-07-29T02:39:43;1.47;;;1.47;;
5718;SDS011;2884;47.734;9.244;2023-07-29T02:42:09;1.40;;;1.40;;
5718;SDS011;2884;47.734;9.244;2023-07-29T02:44:35;1.40;;;1.30;;
5718;SDS011;2884;47.734;9.244;2023-07-29T02:47:00;1.60;;;1.50;;
5718;SDS011;2884;47.734;9.244;2023-07-29T02:49:26;1.23;;;1.20;;
5718;SDS011;2884;47.734;9.244;2023-07-29T02:51:51;1.20;;;1.20;;
5718;SDS011;2884;47.734;9.244;2023-07-29T02:54:17;3.13;;;1.20;;
5718;SDS011;2884;47.734;9.244;2023-07-29T02:56:42;1.80;;;1.30;;
5718;SDS011;2884;47.734;9.244;2023-07-29T02:59:08;1.93;;;1.50;;
5718;SDS011;2884;47.734;9.244;2023-07-29T03:01:33;1.60;;;1.30;;
5718;SDS011;2884;47.734;9.244;2023-07-29T03:03:59;1.40;;;1.30;;
5718;SDS011;2884;47.734;9.244;2023-07-29T03:06:25;1.67;;;1.57;;
5718;SDS011;2884;47.734;9.244;2023-07-29T03:08:50;1.90;;;1.33;;
5718;SDS011;2884;47.734;9.244;2023-07-29T03:11:16;1.90;;;1.40;;
5718;SDS011;2884;47.734;9.244;2023-07-29T03:13:42;1.73;;;1.23;;
5718;SDS011;2884;47.734;9.244;2023-07-29T03:16:09;1.73;;;1.30;;
5718;SDS011;2884;47.734;9.244;2023-07-29T03:18:36;1.33;;;1.10;;
5718;SDS011;2884;47.734;9.244;2023-07-29T03:21:02;1.20;;;1.20;;
5718;SDS011;2884;47.734;9.244;2023-07-29T03:23:28;1.10;;;1.03;;
5718;SDS011;2884;47.734;9.244;2023-07-29T03:25:55;1.13;;;1.13;;
5718;SDS011;2884;47.734;9.244;2023-07-29T03:28:23;1.70;;;1.23;;
5718;SDS011;2884;47.734;9.244;2023-07-29T03:30:53;1.00;;;1.00;;
5718;SDS011;2884;47.734;9.244;2023-07-29T03:33:19;1.20;;;1.10;;
5718;SDS011;2884;47.734;9.244;2023-07-29T03:35:45;1.10;;;1.10;;
5718;SDS011;2884;47.734;9.244;2023-07-29T03:38:11;1.23;;;1.13;;
5718;SDS011;2884;47.734;9.244;2023-07-29T03:40:37;1.50;;;1.50;;
5718;SDS011;2884;47.734;9.244;2023-07-29T03:43:03;1.30;;;1.30;;
5718;SDS011;2884;47.734;9.244;2023-07-29T03:45:29;4.73;;;1.13;;
5718;SDS011;2884;47.734;9.244;2023-07-29T03:47:54;1.33;;;1.13;;
5718;SDS011;2884;47.734;9.244;2023-07-29T03:50:20;1.20;;;1.20;;
5718;SDS011;2884;47.734;9.244;2023-07-29T03:52:46;1.70;;;1.60;;
5718;SDS011;2884;47.734;9.244;2023-07-29T03:55:11;2.00;;;1.50;;
5718;SDS011;2884;47.734;9.244;2023-07-29T03:57:37;3.23;;;1.50;;
5718;SDS011;2884;47.734;9.244;2023-07-29T04:00:03;2.00;;;1.60;;
5718;SDS011;2884;47.734;9.244;2023-07-29T04:02:29;1.60;;;1.50;;
5718;SDS011;2884;47.734;9.244;2023-07-29T04:04:54;3.00;;;1.80;;
5718;SDS011;2884;47.734;9.244;2023-07-29T04:07:20;1.63;;;1.60;;
5718;SDS011;2884;47.734;9.244;2023-07-29T04:09:45;1.77;;;1.67;;
5718;SDS011;2884;47.734;9.244;2023-07-29T04:12:11;1.40;;;1.30;;
5718;SDS011;2884;47.734;9.244;2023-07-29T04:14:37;1.53;;;1.53;;
5718;SDS011;2884;47.734;9.244;2023-07-29T04:17:02;2.07;;;1.97;;
5718;SDS011;2884;47.734;9.244;2023-07-29T04:19:28;1.60;;;1.60;;
5718;SDS011;2884;47.734;9.244;2023-07-29T04:21:53;1.30;;;1.20;;
5718;SDS011;2884;47.734;9.244;2023-07-29T04:24:19;1.90;;;1.63;;
5718;SDS011;2884;47.734;9.244;2023-07-29T04:26:45;1.40;;;1.40;;
5718;SDS011;2884;47.734;9.244;2023-07-29T04:29:11;1.50;;;1.40;;
5718;SDS011;2884;47.734;9.244;2023-07-29T04:31:37;1.70;;;1.60;;
5718;SDS011;2884;47.734;9.244;2023-07-29T04:34:04;1.43;;;1.33;;
5718;SDS011;2884;47.734;9.244;2023-07-29T04:36:30;1.37;;;1.27;;
5718;SDS011;2884;47.734;9.244;2023-07-29T04:38:55;1.20;;;1.20;;
5718;SDS011;2884;47.734;9.244;2023-07-29T04:41:21;1.33;;;1.27;;
5718;SDS011;2884;47.734;9.244;2023-07-29T04:43:46;3.23;;;1.83;;
5718;SDS011;2884;47.734;9.244;2023-07-29T04:46:12;1.60;;;1.50;;
5718;SDS011;2884;47.734;9.244;2023-07-29T04:48:37;1.30;;;1.30;;
5718;SDS011;2884;47.734;9.244;2023-07-29T04:51:03;1.10;;;1.10;;
5718;SDS011;2884;47.734;9.244;2023-07-29T04:53:28;1.57;;;1.50;;
5718;SDS011;2884;47.734;9.244;2023-07-29T04:55:54;1.60;;;1.60;;
5718;SDS011;2884;47.734;9.244;2023-07-29T04:58:20;1.10;;;1.10;;
5718;SDS011;2884;47.734;9.244;2023-07-29T05:00:48;1.57;;;1.10;;
5718;SDS011;2884;47.734;9.244;2023-07-29T05:03:21;1.17;;;1.17;;
5718;SDS011;2884;47.734;9.244;2023-07-29T05:05:47;0.90;;;0.90;;
5718;SDS011;2884;47.734;9.244;2023-07-29T05:08:13;1.63;;;1.53;;
5718;SDS011;2884;47.734;9.244;2023-07-29T05:10:42;1.20;;;1.20;;
5718;SDS011;2884;47.734;9.244;2023-07-29T05:13:07;1.13;;;1.13;;
5718;SDS011;2884;47.734;9.244;2023-07-29T05:15:36;1.33;;;1.23;;
5718;SDS011;2884;47.734;9.244;2023-07-29T05:18:01;1.30;;;1.20;;
5718;SDS011;2884;47.734;9.244;2023-07-29T05:20:27;1.40;;;1.40;;
5718;SDS011;2884;47.734;9.244;2023-07-29T05:22:52;1.10;;;1.10;;
5718;SDS011;2884;47.734;9.244;2023-07-29T05:25:18;1.10;;;1.10;;
5718;SDS011;2884;47.734;9.244;2023-07-29T05:27:44;1.30;;;1.30;;
5718;SDS011;2884;47.734;9.244;2023-07-29T05:30:09;1.23;;;1.23;;
5718;SDS011;2884;47.734;9.244;2023-07-29T05:32:34;1.47;;;1.20;;
5718;SDS011;2884;47.734;9.244;2023-07-29T05:35:00;1.40;;;1.40;;
5718;SDS011;2884;47.734;9.244;2023-07-29T05:37:25;1.10;;;1.10;;
5718;SDS011;2884;47.734;9.244;2023-07-29T05:39:51;1.20;;;1.20;;
5718;SDS011;2884;47.734;9.244;2023-07-29T05:42:17;1.10;;;1.00;;
5718;SDS011;2884;47.734;9.244;2023-07-29T05:44:42;0.93;;;0.80;;
5718;SDS011;2884;47.734;9.244;2023-07-29T05:47:08;1.50;;;0.70;;
5718;SDS011;2884;47.734;9.244;2023-07-29T05:49:33;1.00;;;1.00;;
5718;SDS011;2884;47.734;9.244;2023-07-29T05:51:59;1.60;;;1.00;;
5718;SDS011;2884;47.734;9.244;2023-07-29T05:54:24;1.10;;;1.10;;
5718;SDS011;2884;47.734;9.244;2023-07-29T05:56:50;1.40;;;1.40;;
5718;SDS011;2884;47.734;9.244;2023-07-29T05:59:15;1.70;;;1.60;;
5718;SDS011;2884;47.734;9.244;2023-07-29T06:01:41;1.60;;;1.50;;
5718;SDS011;2884;47.734;9.244;2023-07-29T06:04:07;1.90;;;1.80;;
5718;SDS011;2884;47.734;9.244;2023-07-29T06:06:33;1.50;;;1.50;;
5718;SDS011;2884;47.734;9.244;2023-07-29T06:08:58;1.53;;;1.53;;
5718;SDS011;2884;47.734;9.244;2023-07-29T06:11:24;1.70;;;1.60;;
5718;SDS011;2884;47.734;9.244;2023-07-29T06:13:50;1.50;;;1.50;;
5718;SDS011;2884;47.734;9.244;2023-07-29T06:16:15;1.60;;;1.53;;
5718;SDS011;2884;47.734;9.244;2023-07-29T06:18:41;1.53;;;1.20;;
5718;SDS011;2884;47.734;9.244;2023-07-29T06:21:06;1.70;;;1.70;;
5718;SDS011;2884;47.734;9.244;2023-07-29T06:23:33;2.70;;;1.83;;
5718;SDS011;2884;47.734;9.244;2023-07-29T06:25:59;2.00;;;1.90;;
5718;SDS011;2884;47.734;9.244;2023-07-29T06:28:25;2.23;;;2.13;;
5718;SDS011;2884;47.734;9.244;2023-07-29T06:30:51;2.80;;;2.60;;
5718;SDS011;2884;47.734;9.244;2023-07-29T06:33:17;2.80;;;2.70;;
5718;SDS011;2884;47.734;9.244;2023-07-29T06:35:43;2.90;;;2.70;;
5718;SDS011;2884;47.734;9.244;2023-07-29T06:38:08;7.40;;;2.87;;
5718;SDS011;2884;47.734;9.244;2023-07-29T06:40:34;6.63;;;3.90;;
5718;SDS011;2884;47.734;9.244;2023-07-29T06:43:00;4.17;;;3.77;;
5718;SDS011;2884;47.734;9.244;2023-07-29T06:45:25;3.03;;;2.83;;
5718;SDS011;2884;47.734;9.244;2023-07-29T06:47:51;4.80;;;3.37;;
5718;SDS011;2884;47.734;9.244;2023-07-29T06:50:20;3.07;;;2.87;;
5718;SDS011;2884;47.734;9.244;2023-07-29T06:52:45;3.83;;;2.63;;
5718;SDS011;2884;47.734;9.244;2023-07-29T06:55:11;3.27;;;3.00;;
5718;SDS011;2884;47.734;9.244;2023-07-29T06:57:37;3.20;;;2.90;;
5718;SDS011;2884;47.734;9.244;2023-07-29T07:00:03;8.93;;;2.90;;
5718;SDS011;2884;47.734;9.244;2023-07-29T07:02:29;3.43;;;3.13;;
5718;SDS011;2884;47.734;9.244;2023-07-29T07:04:55;4.67;;;2.80;;
5718;SDS011;2884;47.734;9.244;2023-07-29T07:07:20;5.43;;;3.00;;
5718;SDS011;2884;47.734;9.244;2023-07-29T07:09:46;5.50;;;3.00;;
5718;SDS011;2884;47.734;9.244;2023-07-29T07:12:12;4.30;;;3.50;;
5718;SDS011;2884;47.734;9.244;2023-07-29T07:14:37;5.13;;;3.03;;
5718;SDS011;2884;47.734;9.244;2023-07-29T07:17:03;3.07;;;2.77;;
5718;SDS011;2884;47.734;9.244;2023-07-29T07:19:29;3.17;;;2.97;;
5718;SDS011;2884;47.734;9.244;2023-07-29T07:21:54;4.60;;;3.47;;
5718;SDS011;2884;47.734;9.244;2023-07-29T07:24:20;11.17;;;3.60;;
5718;SDS011;2884;47.734;9.244;2023-07-29T07:26:45;6.47;;;3.53;;
5718;SDS011;2884;47.734;9.244;2023-07-29T07:29:11;3.40;;;3.10;;
5718;SDS011;2884;47.734;9.244;2023-07-29T07:31:37;3.70;;;3.40;;
5718;SDS011;2884;47.734;9.244;2023-07-29T07:34:02;5.47;;;3.50;;
5718;SDS011;2884;47.734;9.244;2023-07-29T07:36:28;4.73;;;3.20;;
5718;SDS011;2884;47.734;9.244;2023-07-29T07:38:54;3.00;;;2.80;;
5718;SDS011;2884;47.734;9.244;2023-07-29T07:41:20;6.37;;;3.63;;
5718;SDS011;2884;47.734;9.244;2023-07-29T07:43:45;3.67;;;2.77;;
5718;SDS011;2884;47.734;9.244;2023-07-29T07:46:11;4.20;;;3.80;;
5718;SDS011;2884;47.734;9.244;2023-07-29T07:48:37;4.07;;;3.50;;
5718;SDS011;2884;47.734;9.244;2023-07-29T07:51:12;6.10;;;3.17;;
5718;SDS011;2884;47.734;9.244;2023-07-29T07:53:39;4.23;;;3.30;;
5718;SDS011;2884;47.734;9.244;2023-07-29T07:56:05;4.53;;;3.57;;
5718;SDS011;2884;47.734;9.244;2023-07-29T07:58:31;3.57;;;3.30;;
5718;SDS011;2884;47.734;9.244;2023-07-29T08:01:01;3.80;;;3.50;;
5718;SDS011;2884;47.734;9.244;2023-07-29T08:03:28;3.10;;;2.90;;
5718;SDS011;2884;47.734;9.244;2023-07-29T08:05:53;3.63;;;3.17;;
5718;SDS011;2884;47.734;9.244;2023-07-29T08:08:19;5.37;;;3.10;;
5718;SDS011;2884;47.734;9.244;2023-07-29T08:10:44;3.80;;;3.37;;
5718;SDS011;2884;47.734;9.244;2023-07-29T08:13:10;4.77;;;3.10;;
5718;SDS011;2884;47.734;9.244;2023-07-29T08:15:35;3.83;;;3.53;;
5718;SDS011;2884;47.734;9.244;2023-07-29T08:18:01;4.37;;;3.97;;
5718;SDS011;2884;47.734;9.244;2023-07-29T08:20:27;3.87;;;3.23;;
5718;SDS011;2884;47.734;9.244;2023-07-29T08:22:52;3.07;;;2.80;;
5718;SDS011;2884;47.734;9.244;2023-07-29T08:25:18;4.33;;;3.90;;
5718;SDS011;2884;47.734;9.244;2023-07-29T08:27:44;5.97;;;3.93;;
5718;SDS011;2884;47.734;9.244;2023-07-29T08:30:10;6.33;;;3.40;;
5718;SDS011;2884;47.734;9.244;2023-07-29T08:32:36;4.33;;;3.27;;
5718;SDS011;2884;47.734;9.244;2023-07-29T08:35:05;4.57;;;4.10;;
5718;SDS011;2884;47.734;9.244;2023-07-29T08:37:34;4.67;;;4.20;;
5718;SDS011;2884;47.734;9.244;2023-07-29T08:40:00;4.67;;;3.80;;
5718;SDS011;2884;47.734;9.244;2023-07-29T08:42:30;10.63;;;4.80;;
5718;SDS011;2884;47.734;9.244;2023-07-29T08:45:06;4.30;;;3.90;;
5718;SDS011;2884;47.734;9.244;2023-07-29T08:47:36;3.83;;;3.30;;
5718;SDS011;2884;47.734;9.244;2023-07-29T08:50:04;4.20;;;3.70;;
5718;SDS011;2884;47.734;9.244;2023-07-29T08:52:31;3.90;;;3.60;;
5718;SDS011;2884;47.734;9.244;2023-07-29T08:55:00;3.77;;;3.43;;
5718;SDS011;2884;47.734;9.244;2023-07-29T08:57:26;4.13;;;3.70;;
5718;SDS011;2884;47.734;9.244;2023-07-29T08:59:52;5.20;;;3.93;;
5718;SDS011;2884;47.734;9.244;2023-07-29T09:02:18;4.40;;;3.57;;
5718;SDS011;2884;47.734;9.244;2023-07-29T09:04:45;4.83;;;4.00;;
5718;SDS011;2884;47.734;9.244;2023-07-29T09:07:11;5.50;;;4.23;;
5718;SDS011;2884;47.734;9.244;2023-07-29T09:09:37;4.40;;;4.00;;
5718;SDS011;2884;47.734;9.244;2023-07-29T09:12:04;6.00;;;4.23;;
5718;SDS011;2884;47.734;9.244;2023-07-29T09:14:30;4.63;;;4.23;;
5718;SDS011;2884;47.734;9.244;2023-07-29T09:16:56;5.90;;;3.90;;
5718;SDS011;2884;47.734;9.244;2023-07-29T09:19:25;6.23;;;3.90;;
5718;SDS011;2884;47.734;9.244;2023-07-29T09:21:52;5.90;;;3.80;;
5718;SDS011;2884;47.734;9.244;2023-07-29T09:24:18;5.77;;;3.80;;
5718;SDS011;2884;47.734;9.244;2023-07-29T09:26:51;4.90;;;3.87;;
5718;SDS011;2884;47.734;9.244;2023-07-29T09:29:21;5.77;;;3.63;;
5718;SDS011;2884;47.734;9.244;2023-07-29T09:31:49;3.90;;;3.57;;
5718;SDS011;2884;47.734;9.244;2023-07-29T09:34:15;5.07;;;3.50;;
5718;SDS011;2884;47.734;9.244;2023-07-29T09:36:43;6.07;;;3.90;;
5718;SDS011;2884;47.734;9.244;2023-07-29T09:39:12;3.73;;;3.40;;
5718;SDS011;2884;47.734;9.244;2023-07-29T09:41:38;7.03;;;2.97;;
5718;SDS011;2884;47.734;9.244;2023-07-29T09:44:04;4.27;;;3.87;;
5718;SDS011;2884;47.734;9.244;2023-07-29T09:46:35;3.20;;;2.90;;
5718;SDS011;2884;47.734;9.244;2023-07-29T09:49:05;4.23;;;3.83;;
5718;SDS011;2884;47.734;9.244;2023-07-29T09:51:36;3.87;;;3.47;;
5718;SDS011;2884;47.734;9.244;2023-07-29T09:54:04;4.87;;;3.77;;
5718;SDS011;2884;47.734;9.244;2023-07-29T09:56:29;4.83;;;4.03;;
5718;SDS011;2884;47.734;9.244;2023-07-29T09:58:56;6.43;;;3.27;;
5718;SDS011;2884;47.734;9.244;2023-07-29T10:01:24;8.77;;;3.30;;
5718;SDS011;2884;47.734;9.244;2023-07-29T10:03:50;3.57;;;3.27;;
5718;SDS011;2884;47.734;9.244;2023-07-29T10:06:16;4.77;;;3.20;;
5718;SDS011;2884;47.734;9.244;2023-07-29T10:08:43;3.17;;;2.97;;
5718;SDS011;2884;47.734;9.244;2023-07-29T10:11:09;3.10;;;2.80;;
5718;SDS011;2884;47.734;9.244;2023-07-29T10:13:36;3.60;;;3.13;;
5718;SDS011;2884;47.734;9.244;2023-07-29T10:16:03;4.33;;;3.30;;
5718;SDS011;2884;47.734;9.244;2023-07-29T10:18:30;3.77;;;3.47;;
5718;SDS011;2884;47.734;9.244;2023-07-29T10:21:00;3.53;;;3.00;;
5718;SDS011;2884;47.734;9.244;2023-07-29T10:23:37;3.50;;;3.20;;
5718;SDS011;2884;47.734;9.244;2023-07-29T10:26:05;2.83;;;2.63;;
5718;SDS011;2884;47.734;9.244;2023-07-29T10:28:37;2.73;;;2.53;;
5718;SDS011;2884;47.734;9.244;2023-07-29T10:31:08;2.80;;;2.60;;
5718;SDS011;2884;47.734;9.244;2023-07-29T10:33:35;3.00;;;2.70;;
5718;SDS011;2884;47.734;9.244;2023-07-29T10:36:02;2.83;;;2.63;;
5718;SDS011;2884;47.734;9.244;2023-07-29T10:38:28;3.70;;;3.20;;
5718;SDS011;2884;47.734;9.244;2023-07-29T10:40:55;3.07;;;2.70;;
5718;SDS011;2884;47.734;9.244;2023-07-29T10:43:25;3.17;;;2.93;;
5718;SDS011;2884;47.734;9.244;2023-07-29T10:45:52;2.80;;;2.60;;
5718;SDS011;2884;47.734;9.244;2023-07-29T10:53:57;2.77;;;2.57;;
5718;SDS011;2884;47.734;9.244;2023-07-29T10:56:32;2.60;;;2.40;;
5718;SDS011;2884;47.734;9.244;2023-07-29T10:59:00;2.67;;;2.57;;
5718;SDS011;2884;47.734;9.244;2023-07-29T11:01:53;2.90;;;2.70;;
5718;SDS011;2884;47.734;9.244;2023-07-29T11:04:28;2.83;;;2.60;;
5718;SDS011;2884;47.734;9.244;2023-07-29T11:15:06;2.47;;;2.23;;
5718;SDS011;2884;47.734;9.244;2023-07-29T11:20:18;2.50;;;2.30;;
5718;SDS011;2884;47.734;9.244;2023-07-29T11:22:48;3.50;;;2.57;;
5718;SDS011;2884;47.734;9.244;2023-07-29T11:25:16;6.80;;;2.83;;
5718;SDS011;2884;47.734;9.244;2023-07-29T11:27:46;2.90;;;2.70;;
5718;SDS011;2884;47.734;9.244;2023-07-29T11:30:13;7.20;;;2.73;;
5718;SDS011;2884;47.734;9.244;2023-07-29T11:32:40;7.33;;;2.40;;
5718;SDS011;2884;47.734;9.244;2023-07-29T11:35:08;4.53;;;2.77;;
5718;SDS011;2884;47.734;9.244;2023-07-29T11:37:38;7.03;;;2.73;;
5718;SDS011;2884;47.734;9.244;2023-07-29T11:40:05;2.70;;;2.50;;
5718;SDS011;2884;47.734;9.244;2023-07-29T11:42:40;8.03;;;2.40;;
5718;SDS011;2884;47.734;9.244;2023-07-29T11:45:07;2.43;;;2.33;;
5718;SDS011;2884;47.734;9.244;2023-07-29T11:47:34;3.20;;;2.90;;
5718;SDS011;2884;47.734;9.244;2023-07-29T11:50:09;2.37;;;2.17;;
5718;SDS011;2884;47.734;9.244;2023-07-29T11:52:37;2.97;;;2.73;;
5718;SDS011;2884;47.734;9.244;2023-07-29T11:55:06;2.83;;;2.63;;
5718;SDS011;2884;47.734;9.244;2023-07-29T11:57:41;5.00;;;3.10;;
5718;SDS011;2884;47.734;9.244;2023-07-29T12:00:09;5.40;;;2.57;;
5718;SDS011;2884;47.734;9.244;2023-07-29T12:02:40;2.70;;;2.50;;
5718;SDS011;2884;47.734;9.244;2023-07-29T12:05:10;2.80;;;2.60;;
5718;SDS011;2884;47.734;9.244;2023-07-29T12:07:37;2.80;;;2.60;;
5718;SDS011;2884;47.734;9.244;2023-07-29T12:10:03;5.40;;;3.40;;
5718;SDS011;2884;47.734;9.244;2023-07-29T12:12:30;3.80;;;2.83;;
5718;SDS011;2884;47.734;9.244;2023-07-29T12:14:56;5.70;;;3.30;;
5718;SDS011;2884;47.734;9.244;2023-07-29T12:17:26;2.57;;;1.73;;
5718;SDS011;2884;47.734;9.244;2023-07-29T12:19:53;2.37;;;2.17;;
5718;SDS011;2884;47.734;9.244;2023-07-29T12:22:20;2.60;;;2.40;;
5718;SDS011;2884;47.734;9.244;2023-07-29T12:24:46;2.67;;;2.30;;
5718;SDS011;2884;47.734;9.244;2023-07-29T12:27:13;2.70;;;2.50;;
5718;SDS011;2884;47.734;9.244;2023-07-29T12:29:41;2.50;;;2.30;;
5718;SDS011;2884;47.734;9.244;2023-07-29T12:32:07;3.00;;;2.53;;
5718;SDS011;2884;47.734;9.244;2023-07-29T12:34:34;3.17;;;2.80;;
5718;SDS011;2884;47.734;9.244;2023-07-29T12:37:02;2.60;;;2.40;;
5718;SDS011;2884;47.734;9.244;2023-07-29T12:39:30;3.07;;;2.17;;
5718;SDS011;2884;47.734;9.244;2023-07-29T12:41:59;2.27;;;2.07;;
5718;SDS011;2884;47.734;9.244;2023-07-29T12:44:28;3.03;;;2.30;;
5718;SDS011;2884;47.734;9.244;2023-07-29T12:47:02;4.10;;;2.10;;
5718;SDS011;2884;47.734;9.244;2023-07-29T12:49:29;2.70;;;2.50;;
5718;SDS011;2884;47.734;9.244;2023-07-29T12:51:59;2.23;;;2.13;;
5718;SDS011;2884;47.734;9.244;2023-07-29T12:54:27;2.90;;;2.70;;
5718;SDS011;2884;47.734;9.244;2023-07-29T12:56:53;5.03;;;2.57;;
5718;SDS011;2884;47.734;9.244;2023-07-29T12:59:19;4.27;;;2.50;;
5718;SDS011;2884;47.734;9.244;2023-07-29T13:01:45;3.80;;;2.77;;
5718;SDS011;2884;47.734;9.244;2023-07-29T13:04:10;3.20;;;2.53;;
5718;SDS011;2884;47.734;9.244;2023-07-29T13:06:37;1.93;;;1.83;;
5718;SDS011;2884;47.734;9.244;2023-07-29T13:09:03;2.53;;;2.33;;
5718;SDS011;2884;47.734;9.244;2023-07-29T13:11:30;2.17;;;2.07;;
5718;SDS011;2884;47.734;9.244;2023-07-29T13:13:58;1.93;;;1.83;;
5718;SDS011;2884;47.734;9.244;2023-07-29T13:16:23;2.07;;;1.97;;
5718;SDS011;2884;47.734;9.244;2023-07-29T13:18:49;2.93;;;2.57;;
5718;SDS011;2884;47.734;9.244;2023-07-29T13:21:18;4.70;;;3.80;;
5718;SDS011;2884;47.734;9.244;2023-07-29T13:23:45;4.00;;;2.60;;
5718;SDS011;2884;47.734;9.244;2023-07-29T13:26:10;3.47;;;3.20;;
5718;SDS011;2884;47.734;9.244;2023-07-29T13:28:36;2.87;;;2.57;;
5718;SDS011;2884;47.734;9.244;2023-07-29T13:31:02;2.77;;;2.33;;
5718;SDS011;2884;47.734;9.244;2023-07-29T13:33:28;3.27;;;2.60;;
5718;SDS011;2884;47.734;9.244;2023-07-29T13:35:53;2.57;;;2.37;;
5718;SDS011;2884;47.734;9.244;2023-07-29T13:38:20;2.50;;;2.33;;
5718;SDS011;2884;47.734;9.244;2023-07-29T13:40:45;2.37;;;2.17;;
5718;SDS011;2884;47.734;9.244;2023-07-29T13:43:11;3.93;;;2.17;;
5718;SDS011;2884;47.734;9.244;2023-07-29T13:45:37;2.47;;;2.27;;
5718;SDS011;2884;47.734;9.244;2023-07-29T13:48:03;2.80;;;2.60;;
5718;SDS011;2884;47.734;9.244;2023-07-29T13:50:29;2.17;;;2.00;;
5718;SDS011;2884;47.734;9.244;2023-07-29T13:52:55;2.33;;;2.20;;
5718;SDS011;2884;47.734;9.244;2023-07-29T13:55:20;2.93;;;2.37;;
5718;SDS011;2884;47.734;9.244;2023-07-29T13:57:46;2.20;;;2.10;;
5718;SDS011;2884;47.734;9.244;2023-07-29T14:00:12;4.00;;;1.70;;
5718;SDS011;2884;47.734;9.244;2023-07-29T14:02:38;1.87;;;1.77;;
5718;SDS011;2884;47.734;9.244;2023-07-29T14:05:04;1.97;;;1.60;;
5718;SDS011;2884;47.734;9.244;2023-07-29T14:07:30;1.70;;;1.60;;
5718;SDS011;2884;47.734;9.244;2023-07-29T14:09:56;2.20;;;2.00;;
5718;SDS011;2884;47.734;9.244;2023-07-29T14:12:21;1.80;;;1.70;;
5718;SDS011;2884;47.734;9.244;2023-07-29T14:14:47;1.50;;;1.40;;
5718;SDS011;2884;47.734;9.244;2023-07-29T14:17:12;3.00;;;1.83;;
5718;SDS011;2884;47.734;9.244;2023-07-29T14:19:38;1.67;;;1.57;;
5718;SDS011;2884;47.734;9.244;2023-07-29T14:22:04;2.70;;;1.50;;
5718;SDS011;2884;47.734;9.244;2023-07-29T14:24:29;1.40;;;1.30;;
5718;SDS011;2884;47.734;9.244;2023-07-29T14:26:56;2.00;;;1.10;;
5718;SDS011;2884;47.734;9.244;2023-07-29T14:29:23;1.43;;;1.33;;
5718;SDS011;2884;47.734;9.244;2023-07-29T14:31:48;1.53;;;1.43;;
5718;SDS011;2884;47.734;9.244;2023-07-29T14:34:14;1.60;;;1.13;;
5718;SDS011;2884;47.734;9.244;2023-07-29T14:36:40;1.10;;;1.10;;
5718;SDS011;2884;47.734;9.244;2023-07-29T14:39:06;1.50;;;1.40;;
5718;SDS011;2884;47.734;9.244;2023-07-29T14:41:32;1.20;;;1.20;;
5718;SDS011;2884;47.734;9.244;2023-07-29T14:43:57;1.70;;;1.00;;
5718;SDS011;2884;47.734;9.244;2023-07-29T14:46:23;1.10;;;1.07;;
5718;SDS011;2884;47.734;9.244;2023-07-29T14:48:49;1.30;;;1.30;;
5718;SDS011;2884;47.734;9.244;2023-07-29T14:51:15;1.57;;;1.47;;
5718;SDS011;2884;47.734;9.244;2023-07-29T14:53:40;1.67;;;1.67;;
5718;SDS011;2884;47.734;9.244;2023-07-29T14:56:06;1.77;;;1.67;;
5718;SDS011;2884;47.734;9.244;2023-07-29T14:58:32;1.57;;;1.47;;
5718;SDS011;2884;47.734;9.244;2023-07-29T15:00:57;1.67;;;1.67;;
5718;SDS011;2884;47.734;9.244;2023-07-29T15:03:23;5.60;;;2.10;;
5718;SDS011;2884;47.734;9.244;2023-07-29T15:05:49;1.90;;;1.57;;
5718;SDS011;2884;47.734;9.244;2023-07-29T15:08:15;1.93;;;1.37;;
5718;SDS011;2884;47.734;9.244;2023-07-29T15:10:44;1.60;;;1.50;;
5718;SDS011;2884;47.734;9.244;2023-07-29T15:13:10;1.77;;;1.70;;
5718;SDS011;2884;47.734;9.244;2023-07-29T15:15:36;1.43;;;1.43;;
5718;SDS011;2884;47.734;9.244;2023-07-29T15:18:01;1.50;;;1.40;;
5718;SDS011;2884;47.734;9.244;2023-07-29T15:20:27;2.07;;;1.40;;
5718;SDS011;2884;47.734;9.244;2023-07-29T15:22:53;1.70;;;1.40;;
5718;SDS011;2884;47.734;9.244;2023-07-29T15:25:18;2.10;;;1.43;;
5718;SDS011;2884;47.734;9.244;2023-07-29T15:27:44;1.67;;;1.60;;
5718;SDS011;2884;47.734;9.244;2023-07-29T15:30:09;1.70;;;1.60;;
5718;SDS011;2884;47.734;9.244;2023-07-29T15:32:37;1.37;;;1.37;;